sensor_id;sensor_type;location;lat;lon;timestamp;pressure;altitude;pressure_sealevel;temperature;humidity
7532;BME280;3807;49.030;8.714;2022-10-15T00:02:02;98559.09;;;16.67;73.76
7532;BME280;3807;49.030;8.714;2022-10-15T00:04:29;98554.53;;;16.60;74.11
7532;BME280;3807;49.030;8.714;2022-10-15T00:06:54;98551.34;;;16.56;74.22
7532;BME280;3807;49.030;8.714;2022-10-15T00:09:20;98554.13;;;16.53;74.50
7532;BME280;3807;49.030;8.714;2022-10-15T00:11:45;98550.63;;;16.54;74.39
7532;BME280;3807;49.030;8.714;2022-10-15T00:14:10;98559.75;;;16.58;74.23
7532;BME280;3807;49.030;8.714;2022-10-15T00:16:36;98555.94;;;16.64;74.09
7532;BME280;3807;49.030;8.714;2022-10-15T00:19:01;98551.50;;;16.66;73.80
7532;BME280;3807;49.030;8.714;2022-10-15T00:21:27;98547.84;;;16.57;74.14
7532;BME280;3807;49.030;8.714;2022-10-15T00:23:53;98552.03;;;16.58;74.06
7532;BME280;3807;49.030;8.714;2022-10-15T00:26:28;98550.59;;;16.67;73.81
7532;BME280;3807;49.030;8.714;2022-10-15T00:28:56;98556.84;;;16.63;73.90
7532;BME280;3807;49.030;8.714;2022-10-15T00:31:23;98553.75;;;16.71;73.63
7532;BME280;3807;49.030;8.714;2022-10-15T00:33:50;98555.22;;;16.62;73.98
7532;BME280;3807;49.030;8.714;2022-10-15T00:36:18;98556.75;;;16.64;73.81
7532;BME280;3807;49.030;8.714;2022-10-15T00:38:44;98550.06;;;16.75;73.42
7532;BME280;3807;49.030;8.714;2022-10-15T00:41:16;98550.12;;;16.73;73.43
7532;BME280;3807;49.030;8.714;2022-10-15T00:43:45;98548.84;;;16.67;73.55
7532;BME280;3807;49.030;8.714;2022-10-15T00:46:16;98545.53;;;16.65;73.61
7532;BME280;3807;49.030;8.714;2022-10-15T00:48:43;98543.56;;;16.69;73.50
7532;BME280;3807;49.030;8.714;2022-10-15T00:51:10;98549.31;;;16.73;73.34
7532;BME280;3807;49.030;8.714;2022-10-15T00:53:36;98541.91;;;16.81;72.89
7532;BME280;3807;49.030;8.714;2022-10-15T00:56:01;98541.81;;;16.82;72.76
7532;BME280;3807;49.030;8.714;2022-10-15T00:58:28;98552.72;;;16.97;72.11
7532;BME280;3807;49.030;8.714;2022-10-15T01:00:56;98548.78;;;16.80;72.75
7532;BME280;3807;49.030;8.714;2022-10-15T01:03:23;98548.25;;;16.88;72.44
7532;BME280;3807;49.030;8.714;2022-10-15T01:05:50;98544.75;;;16.89;72.39
7532;BME280;3807;49.030;8.714;2022-10-15T01:08:17;98545.41;;;16.80;72.87
7532;BME280;3807;49.030;8.714;2022-10-15T01:10:49;98542.28;;;16.87;72.34
7532;BME280;3807;49.030;8.714;2022-10-15T01:13:39;98536.78;;;16.81;72.61
7532;BME280;3807;49.030;8.714;2022-10-15T01:16:17;98534.50;;;16.76;72.84
7532;BME280;3807;49.030;8.714;2022-10-15T01:24:01;98537.81;;;16.78;72.76
7532;BME280;3807;49.030;8.714;2022-10-15T01:30:00;98524.75;;;16.68;73.90
7532;BME280;3807;49.030;8.714;2022-10-15T01:32:29;98527.22;;;16.46;74.91
7532;BME280;3807;49.030;8.714;2022-10-15T01:35:23;98525.62;;;16.56;73.81
7532;BME280;3807;49.030;8.714;2022-10-15T01:38:59;98529.13;;;16.55;74.04
7532;BME280;3807;49.030;8.714;2022-10-15T01:41:09;98529.31;;;16.52;74.36
7532;BME280;3807;49.030;8.714;2022-10-15T01:46:14;98525.94;;;16.52;74.95
7532;BME280;3807;49.030;8.714;2022-10-15T01:48:41;98524.28;;;16.63;79.42
7532;BME280;3807;49.030;8.714;2022-10-15T01:51:09;98525.69;;;16.67;79.10
7532;BME280;3807;49.030;8.714;2022-10-15T01:53:36;98531.13;;;16.63;79.26
7532;BME280;3807;49.030;8.714;2022-10-15T01:56:08;98521.78;;;16.62;80.59
7532;BME280;3807;49.030;8.714;2022-10-15T01:58:39;98519.22;;;16.75;79.51
7532;BME280;3807;49.030;8.714;2022-10-15T02:01:06;98520.38;;;16.58;77.71
7532;BME280;3807;49.030;8.714;2022-10-15T02:03:41;98520.16;;;16.61;79.92
7532;BME280;3807;49.030;8.714;2022-10-15T02:06:09;98510.47;;;16.64;80.47
7532;BME280;3807;49.030;8.714;2022-10-15T02:11:56;98515.34;;;16.56;82.53
7532;BME280;3807;49.030;8.714;2022-10-15T02:17:23;98519.31;;;16.36;83.86
7532;BME280;3807;49.030;8.714;2022-10-15T02:20:17;98519.25;;;16.49;82.00
7532;BME280;3807;49.030;8.714;2022-10-15T02:22:56;98534.06;;;16.46;83.78
7532;BME280;3807;49.030;8.714;2022-10-15T02:25:25;98537.25;;;16.49;84.71
7532;BME280;3807;49.030;8.714;2022-10-15T02:27:53;98531.25;;;16.61;82.54
7532;BME280;3807;49.030;8.714;2022-10-15T02:30:20;98526.72;;;16.65;81.93
7532;BME280;3807;49.030;8.714;2022-10-15T02:32:50;98534.97;;;16.57;84.27
7532;BME280;3807;49.030;8.714;2022-10-15T02:35:18;98533.41;;;16.67;83.95
7532;BME280;3807;49.030;8.714;2022-10-15T02:37:47;98530.63;;;16.71;84.20
7532;BME280;3807;49.030;8.714;2022-10-15T02:40:14;98528.13;;;16.69;84.22
7532;BME280;3807;49.030;8.714;2022-10-15T02:42:39;98526.03;;;16.87;82.44
7532;BME280;3807;49.030;8.714;2022-10-15T02:45:05;98531.13;;;16.76;83.91
7532;BME280;3807;49.030;8.714;2022-10-15T02:47:31;98530.31;;;16.62;83.43
7532;BME280;3807;49.030;8.714;2022-10-15T02:49:56;98533.28;;;16.69;82.73
7532;BME280;3807;49.030;8.714;2022-10-15T02:52:22;98532.25;;;16.72;83.33
7532;BME280;3807;49.030;8.714;2022-10-15T02:54:47;98534.31;;;16.79;83.59
7532;BME280;3807;49.030;8.714;2022-10-15T02:57:12;98531.75;;;16.66;83.07
7532;BME280;3807;49.030;8.714;2022-10-15T02:59:38;98538.78;;;16.52;84.79
7532;BME280;3807;49.030;8.714;2022-10-15T03:02:03;98525.91;;;16.64;84.57
7532;BME280;3807;49.030;8.714;2022-10-15T03:04:28;98532.69;;;16.65;84.28
7532;BME280;3807;49.030;8.714;2022-10-15T03:06:54;98533.50;;;16.66;85.06
7532;BME280;3807;49.030;8.714;2022-10-15T03:09:19;98526.16;;;16.73;85.31
7532;BME280;3807;49.030;8.714;2022-10-15T03:11:44;98532.25;;;16.72;83.94
7532;BME280;3807;49.030;8.714;2022-10-15T03:14:10;98530.31;;;16.62;84.67
7532;BME280;3807;49.030;8.714;2022-10-15T03:16:35;98533.62;;;16.64;83.27
7532;BME280;3807;49.030;8.714;2022-10-15T03:19:00;98537.81;;;16.65;85.90
7532;BME280;3807;49.030;8.714;2022-10-15T03:21:26;98534.91;;;16.83;84.77
7532;BME280;3807;49.030;8.714;2022-10-15T03:23:54;98531.88;;;16.65;85.18
7532;BME280;3807;49.030;8.714;2022-10-15T03:26:20;98536.66;;;16.70;85.34
7532;BME280;3807;49.030;8.714;2022-10-15T03:28:45;98538.63;;;16.79;85.97
7532;BME280;3807;49.030;8.714;2022-10-15T03:31:10;98543.47;;;16.71;86.38
7532;BME280;3807;49.030;8.714;2022-10-15T03:33:37;98535.94;;;16.80;85.37
7532;BME280;3807;49.030;8.714;2022-10-15T03:36:03;98537.81;;;16.65;86.71
7532;BME280;3807;49.030;8.714;2022-10-15T03:38:29;98542.41;;;16.73;85.45
7532;BME280;3807;49.030;8.714;2022-10-15T03:40:54;98545.63;;;16.77;84.83
7532;BME280;3807;49.030;8.714;2022-10-15T03:43:23;98542.88;;;16.67;85.85
7532;BME280;3807;49.030;8.714;2022-10-15T03:45:49;98544.00;;;16.63;86.89
7532;BME280;3807;49.030;8.714;2022-10-15T03:48:14;98544.00;;;16.63;87.20
7532;BME280;3807;49.030;8.714;2022-10-15T03:50:39;98547.69;;;16.72;85.97
7532;BME280;3807;49.030;8.714;2022-10-15T03:53:05;98556.41;;;16.69;86.30
7532;BME280;3807;49.030;8.714;2022-10-15T03:55:30;98552.63;;;16.75;86.52
7532;BME280;3807;49.030;8.714;2022-10-15T03:57:56;98555.59;;;16.68;86.87
7532;BME280;3807;49.030;8.714;2022-10-15T04:00:21;98564.03;;;16.71;86.13
7532;BME280;3807;49.030;8.714;2022-10-15T04:02:46;98561.47;;;16.71;87.14
7532;BME280;3807;49.030;8.714;2022-10-15T04:05:12;98563.09;;;16.72;86.65
7532;BME280;3807;49.030;8.714;2022-10-15T04:07:37;98554.19;;;16.77;86.37
7532;BME280;3807;49.030;8.714;2022-10-15T04:10:03;98560.34;;;16.75;86.46
7532;BME280;3807;49.030;8.714;2022-10-15T04:12:28;98563.91;;;16.72;87.25
7532;BME280;3807;49.030;8.714;2022-10-15T04:14:53;98563.53;;;16.65;86.64
7532;BME280;3807;49.030;8.714;2022-10-15T04:17:18;98561.06;;;16.64;87.03
7532;BME280;3807;49.030;8.714;2022-10-15T04:19:44;98567.03;;;16.77;85.42
7532;BME280;3807;49.030;8.714;2022-10-15T04:22:09;98585.03;;;16.77;85.78
7532;BME280;3807;49.030;8.714;2022-10-15T04:24:34;98581.63;;;16.77;85.58
7532;BME280;3807;49.030;8.714;2022-10-15T04:27:00;98585.72;;;16.79;85.95
7532;BME280;3807;49.030;8.714;2022-10-15T04:29:25;98595.69;;;16.84;85.18
7532;BME280;3807;49.030;8.714;2022-10-15T04:31:50;98592.97;;;16.74;86.64
7532;BME280;3807;49.030;8.714;2022-10-15T04:34:16;98603.84;;;16.78;86.48
7532;BME280;3807;49.030;8.714;2022-10-15T04:36:41;98609.19;;;16.75;86.84
7532;BME280;3807;49.030;8.714;2022-10-15T04:39:07;98609.38;;;16.84;86.58
7532;BME280;3807;49.030;8.714;2022-10-15T04:41:32;98613.53;;;16.74;87.05
7532;BME280;3807;49.030;8.714;2022-10-15T04:43:57;98620.59;;;16.71;87.09
7532;BME280;3807;49.030;8.714;2022-10-15T04:46:23;98615.00;;;16.89;85.24
7532;BME280;3807;49.030;8.714;2022-10-15T04:48:48;98613.41;;;16.76;86.29
7532;BME280;3807;49.030;8.714;2022-10-15T04:51:16;98616.03;;;16.87;85.72
7532;BME280;3807;49.030;8.714;2022-10-15T04:53:42;98620.50;;;16.85;86.36
7532;BME280;3807;49.030;8.714;2022-10-15T04:56:13;98616.69;;;16.65;87.54
7532;BME280;3807;49.030;8.714;2022-10-15T04:58:40;98625.84;;;16.82;86.56
7532;BME280;3807;49.030;8.714;2022-10-15T05:01:08;98624.97;;;16.94;85.55
7532;BME280;3807;49.030;8.714;2022-10-15T05:03:36;98627.06;;;16.89;86.07
7532;BME280;3807;49.030;8.714;2022-10-15T05:06:03;98627.47;;;16.83;85.44
7532;BME280;3807;49.030;8.714;2022-10-15T05:08:30;98629.63;;;16.89;85.47
7532;BME280;3807;49.030;8.714;2022-10-15T05:11:06;98624.22;;;16.81;86.65
7532;BME280;3807;49.030;8.714;2022-10-15T05:13:32;98635.59;;;16.77;86.52
7532;BME280;3807;49.030;8.714;2022-10-15T05:18:34;98627.09;;;16.63;87.96
7532;BME280;3807;49.030;8.714;2022-10-15T05:21:00;98632.81;;;16.80;86.62
7532;BME280;3807;49.030;8.714;2022-10-15T05:23:26;98638.28;;;16.88;85.78
7532;BME280;3807;49.030;8.714;2022-10-15T05:25:51;98640.88;;;16.75;85.70
7532;BME280;3807;49.030;8.714;2022-10-15T05:28:17;98644.37;;;16.74;86.37
7532;BME280;3807;49.030;8.714;2022-10-15T05:30:42;98652.37;;;16.82;86.19
7532;BME280;3807;49.030;8.714;2022-10-15T05:33:08;98649.94;;;16.81;86.09
7532;BME280;3807;49.030;8.714;2022-10-15T05:35:33;98658.91;;;16.99;84.45
7532;BME280;3807;49.030;8.714;2022-10-15T05:37:58;98663.47;;;16.83;85.23
7532;BME280;3807;49.030;8.714;2022-10-15T05:40:24;98663.00;;;16.78;86.29
7532;BME280;3807;49.030;8.714;2022-10-15T05:42:52;98663.66;;;16.93;84.36
7532;BME280;3807;49.030;8.714;2022-10-15T05:45:18;98661.13;;;16.80;85.42
7532;BME280;3807;49.030;8.714;2022-10-15T05:47:43;98668.53;;;16.72;86.08
7532;BME280;3807;49.030;8.714;2022-10-15T05:50:08;98669.44;;;16.71;85.94
7532;BME280;3807;49.030;8.714;2022-10-15T05:52:34;98675.50;;;16.82;85.11
7532;BME280;3807;49.030;8.714;2022-10-15T05:54:59;98678.62;;;16.75;85.87
7532;BME280;3807;49.030;8.714;2022-10-15T05:57:24;98677.66;;;16.88;84.02
7532;BME280;3807;49.030;8.714;2022-10-15T05:59:49;98682.94;;;16.74;85.99
7532;BME280;3807;49.030;8.714;2022-10-15T06:02:15;98675.25;;;16.74;85.01
7532;BME280;3807;49.030;8.714;2022-10-15T06:04:43;98690.53;;;16.76;84.89
7532;BME280;3807;49.030;8.714;2022-10-15T06:07:08;98688.69;;;16.78;85.12
7532;BME280;3807;49.030;8.714;2022-10-15T06:09:34;98695.97;;;16.71;85.89
7532;BME280;3807;49.030;8.714;2022-10-15T06:12:00;98700.28;;;16.83;85.04
7532;BME280;3807;49.030;8.714;2022-10-15T06:14:25;98699.78;;;16.91;83.39
7532;BME280;3807;49.030;8.714;2022-10-15T06:16:51;98699.06;;;16.76;84.60
7532;BME280;3807;49.030;8.714;2022-10-15T06:19:18;98705.22;;;16.86;84.56
7532;BME280;3807;49.030;8.714;2022-10-15T06:21:44;98699.16;;;16.87;84.49
7532;BME280;3807;49.030;8.714;2022-10-15T06:24:09;98707.19;;;16.83;84.36
7532;BME280;3807;49.030;8.714;2022-10-15T06:26:35;98710.50;;;16.85;83.87
7532;BME280;3807;49.030;8.714;2022-10-15T06:29:00;98711.31;;;16.85;84.86
7532;BME280;3807;49.030;8.714;2022-10-15T06:31:25;98718.78;;;17.01;83.54
7532;BME280;3807;49.030;8.714;2022-10-15T06:33:51;98719.50;;;16.90;84.10
7532;BME280;3807;49.030;8.714;2022-10-15T06:36:16;98725.72;;;16.75;85.39
7532;BME280;3807;49.030;8.714;2022-10-15T06:38:41;98736.50;;;16.80;85.04
7532;BME280;3807;49.030;8.714;2022-10-15T06:41:08;98728.44;;;16.98;82.63
7532;BME280;3807;49.030;8.714;2022-10-15T06:43:34;98734.66;;;16.95;83.99
7532;BME280;3807;49.030;8.714;2022-10-15T06:46:00;98742.87;;;16.87;84.30
7532;BME280;3807;49.030;8.714;2022-10-15T06:48:25;98747.94;;;16.89;85.04
7532;BME280;3807;49.030;8.714;2022-10-15T06:50:51;98744.84;;;16.84;83.65
7532;BME280;3807;49.030;8.714;2022-10-15T06:53:16;98748.75;;;16.77;84.57
7532;BME280;3807;49.030;8.714;2022-10-15T06:55:42;98760.06;;;17.00;83.17
7532;BME280;3807;49.030;8.714;2022-10-15T06:58:07;98757.59;;;16.98;84.37
7532;BME280;3807;49.030;8.714;2022-10-15T07:00:33;98765.31;;;16.98;83.61
7532;BME280;3807;49.030;8.714;2022-10-15T07:03:03;98766.13;;;16.99;84.10
7532;BME280;3807;49.030;8.714;2022-10-15T07:05:29;98773.72;;;17.00;84.47
7532;BME280;3807;49.030;8.714;2022-10-15T07:07:55;98768.66;;;17.11;83.87
7532;BME280;3807;49.030;8.714;2022-10-15T07:10:21;98776.78;;;17.18;84.11
7532;BME280;3807;49.030;8.714;2022-10-15T07:12:46;98780.63;;;17.00;84.53
7532;BME280;3807;49.030;8.714;2022-10-15T07:15:12;98776.41;;;16.99;83.57
7532;BME280;3807;49.030;8.714;2022-10-15T07:17:38;98776.16;;;17.27;83.71
7532;BME280;3807;49.030;8.714;2022-10-15T07:20:04;98769.53;;;17.36;82.34
7532;BME280;3807;49.030;8.714;2022-10-15T07:22:30;98774.47;;;17.39;82.25
7532;BME280;3807;49.030;8.714;2022-10-15T07:24:55;98776.94;;;17.41;80.42
7532;BME280;3807;49.030;8.714;2022-10-15T07:27:20;98781.75;;;17.45;80.02
7532;BME280;3807;49.030;8.714;2022-10-15T07:29:46;98785.16;;;17.46;80.10
7532;BME280;3807;49.030;8.714;2022-10-15T07:32:11;98787.88;;;17.31;82.33
7532;BME280;3807;49.030;8.714;2022-10-15T07:34:36;98791.56;;;17.40;80.17
7532;BME280;3807;49.030;8.714;2022-10-15T07:37:02;98788.53;;;17.46;81.99
7532;BME280;3807;49.030;8.714;2022-10-15T07:39:27;98778.31;;;17.33;82.78
7532;BME280;3807;49.030;8.714;2022-10-15T07:41:52;98791.13;;;17.46;79.41
7532;BME280;3807;49.030;8.714;2022-10-15T07:44:18;98797.72;;;17.50;80.05
7532;BME280;3807;49.030;8.714;2022-10-15T07:46:43;98797.47;;;17.53;80.25
7532;BME280;3807;49.030;8.714;2022-10-15T07:49:09;98797.94;;;17.47;82.06
7532;BME280;3807;49.030;8.714;2022-10-15T07:51:35;98801.62;;;17.43;82.87
7532;BME280;3807;49.030;8.714;2022-10-15T07:54:01;98798.97;;;17.45;83.74
7532;BME280;3807;49.030;8.714;2022-10-15T07:56:26;98808.38;;;17.57;82.39
7532;BME280;3807;49.030;8.714;2022-10-15T07:58:51;98819.22;;;17.49;82.16
7532;BME280;3807;49.030;8.714;2022-10-15T08:01:19;98804.19;;;17.43;83.42
7532;BME280;3807;49.030;8.714;2022-10-15T08:03:44;98795.84;;;17.52;81.43
7532;BME280;3807;49.030;8.714;2022-10-15T08:06:10;98802.31;;;17.21;84.88
7532;BME280;3807;49.030;8.714;2022-10-15T08:08:36;98807.91;;;17.39;83.50
7532;BME280;3807;49.030;8.714;2022-10-15T08:11:12;98814.28;;;17.46;82.79
7532;BME280;3807;49.030;8.714;2022-10-15T08:13:38;98807.84;;;17.28;84.18
7532;BME280;3807;49.030;8.714;2022-10-15T08:16:09;98813.22;;;17.25;84.83
7532;BME280;3807;49.030;8.714;2022-10-15T08:18:36;98824.12;;;17.28;84.89
7532;BME280;3807;49.030;8.714;2022-10-15T08:21:02;98827.37;;;17.43;84.93
7532;BME280;3807;49.030;8.714;2022-10-15T08:23:27;98816.84;;;17.46;84.04
7532;BME280;3807;49.030;8.714;2022-10-15T08:25:53;98821.25;;;17.33;85.33
7532;BME280;3807;49.030;8.714;2022-10-15T08:28:18;98817.88;;;17.20;86.07
7532;BME280;3807;49.030;8.714;2022-10-15T08:30:44;98814.63;;;17.29;85.72
7532;BME280;3807;49.030;8.714;2022-10-15T08:33:09;98817.16;;;17.54;84.25
7532;BME280;3807;49.030;8.714;2022-10-15T08:35:34;98817.69;;;17.47;84.90
7532;BME280;3807;49.030;8.714;2022-10-15T08:38:03;98824.84;;;17.67;82.79
7532;BME280;3807;49.030;8.714;2022-10-15T08:40:29;98830.94;;;17.53;84.14
7532;BME280;3807;49.030;8.714;2022-10-15T08:42:54;98828.84;;;17.34;85.85
7532;BME280;3807;49.030;8.714;2022-10-15T08:45:28;98827.06;;;17.48;85.15
7532;BME280;3807;49.030;8.714;2022-10-15T08:48:00;98836.81;;;17.55;84.16
7532;BME280;3807;49.030;8.714;2022-10-15T08:53:03;98837.56;;;17.57;83.48
7532;BME280;3807;49.030;8.714;2022-10-15T08:55:33;98840.44;;;17.53;85.43
7532;BME280;3807;49.030;8.714;2022-10-15T09:00:52;98844.97;;;17.49;84.73
7532;BME280;3807;49.030;8.714;2022-10-15T09:03:30;98847.69;;;17.35;85.85
7532;BME280;3807;49.030;8.714;2022-10-15T09:06:08;98841.09;;;17.44;85.91
7532;BME280;3807;49.030;8.714;2022-10-15T09:14:16;98848.72;;;17.82;83.78
7532;BME280;3807;49.030;8.714;2022-10-15T09:16:46;98854.09;;;17.79;84.16
7532;BME280;3807;49.030;8.714;2022-10-15T09:19:20;98859.47;;;17.76;84.33
7532;BME280;3807;49.030;8.714;2022-10-15T09:21:48;98852.28;;;17.55;85.65
7532;BME280;3807;49.030;8.714;2022-10-15T09:24:22;98858.37;;;17.91;82.96
7532;BME280;3807;49.030;8.714;2022-10-15T09:29:49;98871.66;;;17.85;83.89
7532;BME280;3807;49.030;8.714;2022-10-15T09:32:28;98862.88;;;18.00;82.88
7532;BME280;3807;49.030;8.714;2022-10-15T09:35:11;98863.53;;;17.91;84.11
7532;BME280;3807;49.030;8.714;2022-10-15T09:43:12;98863.34;;;17.81;84.37
7532;BME280;3807;49.030;8.714;2022-10-15T09:45:38;98856.34;;;17.83;84.09
7532;BME280;3807;49.030;8.714;2022-10-15T09:48:14;98856.47;;;17.82;84.81
7532;BME280;3807;49.030;8.714;2022-10-15T09:50:44;98861.16;;;17.88;84.09
7532;BME280;3807;49.030;8.714;2022-10-15T09:53:18;98862.28;;;17.97;83.04
7532;BME280;3807;49.030;8.714;2022-10-15T09:56:02;98864.13;;;18.19;83.27
7532;BME280;3807;49.030;8.714;2022-10-15T09:58:37;98862.06;;;18.24;82.18
7532;BME280;3807;49.030;8.714;2022-10-15T10:01:17;98869.31;;;18.06;83.92
7532;BME280;3807;49.030;8.714;2022-10-15T10:03:43;98875.03;;;17.98;84.44
7532;BME280;3807;49.030;8.714;2022-10-15T10:06:12;98868.62;;;18.28;83.45
7532;BME280;3807;49.030;8.714;2022-10-15T10:08:56;98870.00;;;17.97;84.11
7532;BME280;3807;49.030;8.714;2022-10-15T10:11:24;98869.81;;;17.87;84.42
7532;BME280;3807;49.030;8.714;2022-10-15T10:13:57;98877.66;;;18.09;83.76
7532;BME280;3807;49.030;8.714;2022-10-15T10:16:25;98880.56;;;17.81;84.82
7532;BME280;3807;49.030;8.714;2022-10-15T10:19:13;98883.34;;;17.78;84.90
7532;BME280;3807;49.030;8.714;2022-10-15T10:21:40;98895.69;;;17.73;85.22
7532;BME280;3807;49.030;8.714;2022-10-15T10:24:36;98893.25;;;17.71;85.99
7532;BME280;3807;49.030;8.714;2022-10-15T10:27:01;98893.34;;;17.70;86.43
7532;BME280;3807;49.030;8.714;2022-10-15T10:29:28;98896.00;;;17.81;86.29
7532;BME280;3807;49.030;8.714;2022-10-15T10:31:58;98899.09;;;17.86;86.28
7532;BME280;3807;49.030;8.714;2022-10-15T10:34:29;98897.13;;;17.90;86.65
7532;BME280;3807;49.030;8.714;2022-10-15T10:36:55;98895.59;;;18.11;85.94
7532;BME280;3807;49.030;8.714;2022-10-15T10:42:01;98886.72;;;18.15;85.98
7532;BME280;3807;49.030;8.714;2022-10-15T10:44:33;98887.31;;;18.19;86.31
7532;BME280;3807;49.030;8.714;2022-10-15T10:49:31;98890.88;;;18.29;84.80
7532;BME280;3807;49.030;8.714;2022-10-15T10:51:57;98885.84;;;18.27;85.43
7532;BME280;3807;49.030;8.714;2022-10-15T10:54:24;98892.94;;;18.72;82.50
7532;BME280;3807;49.030;8.714;2022-10-15T10:56:50;98878.44;;;18.58;82.92
7532;BME280;3807;49.030;8.714;2022-10-15T10:59:32;98883.53;;;18.71;82.41
7532;BME280;3807;49.030;8.714;2022-10-15T11:01:59;98879.38;;;18.92;82.16
7532;BME280;3807;49.030;8.714;2022-10-15T11:04:30;98875.06;;;19.04;81.31
7532;BME280;3807;49.030;8.714;2022-10-15T11:07:03;98877.53;;;19.06;80.84
7532;BME280;3807;49.030;8.714;2022-10-15T11:09:44;98876.25;;;19.11;80.36
7532;BME280;3807;49.030;8.714;2022-10-15T11:12:37;98871.69;;;19.15;79.84
7532;BME280;3807;49.030;8.714;2022-10-15T11:15:29;98873.56;;;19.35;79.18
7532;BME280;3807;49.030;8.714;2022-10-15T11:20:50;98869.09;;;19.60;78.03
7532;BME280;3807;49.030;8.714;2022-10-15T11:36:50;98863.31;;;19.45;77.58
7532;BME280;3807;49.030;8.714;2022-10-15T11:55:53;98851.25;;;19.68;76.84
7532;BME280;3807;49.030;8.714;2022-10-15T12:01:13;98846.50;;;19.73;76.26
7532;BME280;3807;49.030;8.714;2022-10-15T12:03:50;98850.28;;;19.69;76.60
7532;BME280;3807;49.030;8.714;2022-10-15T12:06:20;98849.44;;;19.80;76.08
7532;BME280;3807;49.030;8.714;2022-10-15T12:08:47;98843.84;;;19.74;75.82
7532;BME280;3807;49.030;8.714;2022-10-15T12:11:47;98843.69;;;19.76;75.96
7532;BME280;3807;49.030;8.714;2022-10-15T12:17:34;98853.50;;;19.39;77.06
7532;BME280;3807;49.030;8.714;2022-10-15T12:20:10;98848.06;;;19.42;76.92
7532;BME280;3807;49.030;8.714;2022-10-15T12:22:54;98846.78;;;19.47;76.53
7532;BME280;3807;49.030;8.714;2022-10-15T12:28:04;98840.66;;;19.60;76.62
7532;BME280;3807;49.030;8.714;2022-10-15T12:30:31;98838.56;;;19.65;75.74
7532;BME280;3807;49.030;8.714;2022-10-15T12:33:02;98837.84;;;19.74;75.35
7532;BME280;3807;49.030;8.714;2022-10-15T12:35:38;98831.38;;;19.57;75.68
7532;BME280;3807;49.030;8.714;2022-10-15T12:38:17;98828.44;;;19.62;76.20
7532;BME280;3807;49.030;8.714;2022-10-15T12:40:44;98828.66;;;19.59;76.12
7532;BME280;3807;49.030;8.714;2022-10-15T12:43:18;98839.25;;;19.78;76.05
7532;BME280;3807;49.030;8.714;2022-10-15T12:46:06;98838.75;;;19.84;75.98
7532;BME280;3807;49.030;8.714;2022-10-15T12:53:47;98842.09;;;19.64;77.24
7532;BME280;3807;49.030;8.714;2022-10-15T12:58:46;98835.97;;;19.65;77.31
7532;BME280;3807;49.030;8.714;2022-10-15T13:03:40;98830.78;;;19.76;77.09
7532;BME280;3807;49.030;8.714;2022-10-15T13:11:43;98850.75;;;19.51;77.66
7532;BME280;3807;49.030;8.714;2022-10-15T13:17:04;98844.31;;;19.57;77.39
7532;BME280;3807;49.030;8.714;2022-10-15T13:19:37;98844.75;;;19.85;76.90
7532;BME280;3807;49.030;8.714;2022-10-15T13:22:05;98836.41;;;19.70;76.78
7532;BME280;3807;49.030;8.714;2022-10-15T13:24:40;98831.72;;;19.75;77.38
7532;BME280;3807;49.030;8.714;2022-10-15T13:30:04;98827.81;;;19.92;76.36
7532;BME280;3807;49.030;8.714;2022-10-15T13:32:34;98828.03;;;19.89;76.17
7532;BME280;3807;49.030;8.714;2022-10-15T13:35:01;98825.56;;;19.87;76.29
7532;BME280;3807;49.030;8.714;2022-10-15T13:37:33;98821.44;;;19.64;76.99
7532;BME280;3807;49.030;8.714;2022-10-15T13:40:00;98826.69;;;19.73;77.10
7532;BME280;3807;49.030;8.714;2022-10-15T13:42:26;98834.78;;;19.69;76.80
7532;BME280;3807;49.030;8.714;2022-10-15T13:44:58;98837.59;;;19.77;76.71
7532;BME280;3807;49.030;8.714;2022-10-15T13:47:35;98836.41;;;19.70;77.22
7532;BME280;3807;49.030;8.714;2022-10-15T13:52:49;98849.09;;;19.62;78.81
7532;BME280;3807;49.030;8.714;2022-10-15T13:55:25;98847.97;;;19.32;79.87
7532;BME280;3807;49.030;8.714;2022-10-15T13:57:59;98849.94;;;19.51;80.11
7532;BME280;3807;49.030;8.714;2022-10-15T14:00:28;98845.50;;;19.53;79.29
7532;BME280;3807;49.030;8.714;2022-10-15T14:05:46;98850.03;;;19.83;78.34
7532;BME280;3807;49.030;8.714;2022-10-15T14:08:24;98850.75;;;19.63;79.79
7532;BME280;3807;49.030;8.714;2022-10-15T14:10:52;98847.44;;;19.83;79.31
7532;BME280;3807;49.030;8.714;2022-10-15T14:13:18;98848.81;;;19.98;78.27
7532;BME280;3807;49.030;8.714;2022-10-15T14:15:51;98838.28;;;19.79;78.43
7532;BME280;3807;49.030;8.714;2022-10-15T14:18:28;98847.44;;;19.94;77.88
7532;BME280;3807;49.030;8.714;2022-10-15T14:20:55;98837.19;;;19.93;78.69
7532;BME280;3807;49.030;8.714;2022-10-15T14:23:22;98836.38;;;20.25;77.91
7532;BME280;3807;49.030;8.714;2022-10-15T14:25:57;98823.75;;;20.10;77.52
7532;BME280;3807;49.030;8.714;2022-10-15T14:28:24;98820.63;;;19.95;78.06
7532;BME280;3807;49.030;8.714;2022-10-15T14:30:50;98827.63;;;20.05;78.23
7532;BME280;3807;49.030;8.714;2022-10-15T14:38:35;98841.41;;;19.94;77.72
7532;BME280;3807;49.030;8.714;2022-10-15T14:41:03;98842.87;;;20.08;77.43
7532;BME280;3807;49.030;8.714;2022-10-15T14:43:33;98840.59;;;19.93;77.61
7532;BME280;3807;49.030;8.714;2022-10-15T14:46:01;98834.00;;;20.01;77.10
7532;BME280;3807;49.030;8.714;2022-10-15T14:50:59;98824.97;;;19.95;77.27
7532;BME280;3807;49.030;8.714;2022-10-15T14:53:31;98819.06;;;20.04;77.37
7532;BME280;3807;49.030;8.714;2022-10-15T14:56:04;98832.22;;;20.01;76.75
7532;BME280;3807;49.030;8.714;2022-10-15T14:58:31;98830.88;;;20.18;76.94
7532;BME280;3807;49.030;8.714;2022-10-15T15:00:59;98831.44;;;20.21;76.20
7532;BME280;3807;49.030;8.714;2022-10-15T15:03:28;98830.50;;;20.22;76.26
7532;BME280;3807;49.030;8.714;2022-10-15T15:05:55;98827.47;;;20.17;76.53
7532;BME280;3807;49.030;8.714;2022-10-15T15:08:22;98825.63;;;20.08;76.90
7532;BME280;3807;49.030;8.714;2022-10-15T15:10:48;98832.22;;;20.01;77.38
7532;BME280;3807;49.030;8.714;2022-10-15T15:13:26;98825.66;;;19.97;77.44
7532;BME280;3807;49.030;8.714;2022-10-15T15:15:52;98831.00;;;19.84;77.47
7532;BME280;3807;49.030;8.714;2022-10-15T15:18:18;98833.41;;;19.97;77.22
7532;BME280;3807;49.030;8.714;2022-10-15T15:20:44;98835.66;;;20.02;76.80
7532;BME280;3807;49.030;8.714;2022-10-15T15:23:16;98840.41;;;19.85;77.29
7532;BME280;3807;49.030;8.714;2022-10-15T15:25:42;98836.94;;;19.96;76.93
7532;BME280;3807;49.030;8.714;2022-10-15T15:28:12;98840.59;;;19.93;77.19
7532;BME280;3807;49.030;8.714;2022-10-15T15:30:40;98826.94;;;20.03;76.51
7532;BME280;3807;49.030;8.714;2022-10-15T15:33:09;98826.47;;;19.97;76.81